| time (UTC) | temp F | wind direction | speed MPH | gust MPH | rain 1hr in | rain 24hr in | rain mn in | humidity % | barometer mb |
| 20260905093054 | 64 | 135 | 9.0 | 15.0 | 0.00 | 0.00 | 0.00 | 70 | 1023.2 |
| 20260905091557 | 64 | 86 | 7.0 | 11.0 | 0.00 | 0.00 | 0.00 | 72 | 1023.2 |
| 20260905090112 | 63 | 146 | 8.0 | 14.0 | 0.00 | 0.00 | 0.00 | 74 | 1023.0 |
| 20260905084548 | 61 | 106 | 7.0 | 13.0 | 0.00 | 0.00 | 0.00 | 78 | 1022.8 |
| 20260905083051 | 61 | 115 | 9.0 | 16.0 | 0.00 | 0.00 | 0.00 | 79 | 1022.6 |
| 20260905081552 | 61 | 96 | 7.0 | 15.0 | 0.00 | 0.00 | 0.00 | 79 | 1022.5 |
| 20260905080050 | 61 | 116 | 8.0 | 14.0 | 0.00 | 0.00 | 0.00 | 82 | 1022.4 |
| 20260905074542 | 59 | 98 | 9.0 | 14.0 | 0.00 | 0.00 | 0.00 | 85 | 1022.0 |
| 20260905073040 | 58 | 186 | 7.0 | 15.0 | 0.00 | 0.00 | 0.00 | 87 | 1022.0 |
| 20260905071539 | 58 | 129 | 9.0 | 18.0 | 0.00 | 0.00 | 0.00 | 89 | 1021.6 |
| 20260905070035 | 57 | 88 | 6.0 | 10.0 | 0.00 | 0.00 | 0.00 | 89 | 1021.2 |
| 20260905064534 | 57 | 116 | 7.0 | 13.0 | 0.00 | 0.00 | 0.00 | 90 | 1021.3 |
| 20260905063033 | 56 | 98 | 5.0 | 9.0 | 0.00 | 0.00 | 0.00 | 92 | 1021.2 |
| 20260905061530 | 56 | 107 | 5.0 | 10.0 | 0.00 | 0.00 | 0.00 | 92 | 1020.9 |
| 20260905060043 | 56 | 111 | 6.0 | 10.0 | 0.00 | 0.00 | 0.00 | 92 | 1020.7 |
| 20260905054536 | 56 | 112 | 5.0 | 9.0 | 0.00 | 0.00 | 0.00 | 92 | 1020.5 |
| 20260905053029 | 56 | 104 | 8.0 | 11.0 | 0.00 | 0.00 | 0.00 | 92 | 1020.4 |
| 20260905051528 | 56 | 110 | 7.0 | 12.0 | 0.00 | 0.00 | 0.00 | 92 | 1020.3 |
| 20260905050020 | 57 | 94 | 9.0 | 14.0 | 0.00 | 0.00 | 0.00 | 92 | 1020.1 |
| 20260905044516 | 57 | 109 | 7.0 | 12.0 | 0.00 | 0.00 | 0.00 | 92 | 1019.7 |
| 20260905043015 | 57 | 89 | 6.0 | 12.0 | 0.00 | 0.00 | 0.00 | 92 | 1019.6 |
| 20260905041512 | 57 | 106 | 7.0 | 14.0 | 0.00 | 0.00 | 0.00 | 93 | 1019.4 |
| 20260905040010 | 58 | 100 | 8.0 | 11.0 | 0.00 | 0.00 | 0.00 | 93 | 1019.4 |
| 20260905034510 | 58 | 116 | 6.0 | 11.0 | 0.00 | 0.00 | 0.00 | 93 | 1019.2 |
| 20260905033007 | 58 | 70 | 5.0 | 9.0 | 0.00 | 0.00 | 0.00 | 92 | 1019.2 |
| 20260905031506 | 58 | 110 | 6.0 | 10.0 | 0.00 | 0.00 | 0.00 | 93 | 1019.2 |
| 20260905030101 | 58 | 113 | 7.0 | 11.0 | 0.00 | 0.00 | 0.00 | 92 | 1019.2 |
| 20260905024558 | 58 | 98 | 6.0 | 9.0 | 0.00 | 0.00 | 0.00 | 92 | 1019.0 |
| 20260905023056 | 58 | 110 | 5.0 | 8.0 | 0.00 | 0.00 | 0.00 | 92 | 1018.8 |
| 20260905021557 | 59 | 101 | 5.0 | 9.0 | 0.00 | 0.00 | 0.00 | 91 | 1018.8 |
| 20260905020054 | 59 | 83 | 5.0 | 8.0 | 0.00 | 0.00 | 0.00 | 91 | 1018.7 |
| 20260905014552 | 59 | 110 | 4.0 | 8.0 | 0.00 | 0.00 | 0.00 | 90 | 1018.7 |
| 20260905013051 | 60 | 126 | 4.0 | 9.0 | 0.00 | 0.00 | 0.00 | 90 | 1018.7 |
| 20260905011552 | 60 | 111 | 6.0 | 12.0 | 0.00 | 0.00 | 0.00 | 90 | 1018.5 |
| 20260905004543 | 61 | 91 | 7.0 | 11.0 | 0.00 | 0.00 | 0.00 | 90 | 1018.4 |
| 20260905003042 | 61 | 142 | 7.0 | 11.0 | 0.00 | 0.00 | 0.00 | 90 | 1018.8 |
| 20260905001548 | 61 | 112 | 7.0 | 13.0 | 0.00 | 0.00 | 0.00 | 90 | 1018.8 |
| 20260905000052 | 61 | 117 | 7.0 | 12.0 | 0.00 | 0.00 | 0.00 | 89 | 1018.9 |
| 20260904234538 | 61 | 115 | 8.0 | 14.0 | 0.00 | 0.00 | 0.00 | 89 | 1018.3 |
| 20260904233034 | 62 | 90 | 7.0 | 15.0 | 0.00 | 0.00 | 0.00 | 89 | 1018.3 |
| 20260904231535 | 62 | 144 | 9.0 | 15.0 | 0.00 | 0.00 | 0.00 | 88 | 1018.2 |
| 20260904230048 | 62 | 110 | 7.0 | 13.0 | 0.00 | 0.00 | 0.00 | 88 | 1017.9 |
| 20260904224525 | 63 | 133 | 7.0 | 13.0 | 0.00 | 0.00 | 0.00 | 88 | 1017.9 |
| 20260904223023 | 63 | 123 | 6.0 | 15.0 | 0.00 | 0.00 | 0.00 | 89 | 1018.0 |
| 20260904221520 | 64 | 127 | 9.0 | 18.0 | 0.00 | 0.00 | 0.00 | 89 | 1017.8 |
| 20260904220017 | 64 | 105 | 12.0 | 20.0 | 0.00 | 0.00 | 0.00 | 89 | 1017.6 |
| 20260904214517 | 64 | 102 | 8.0 | 17.0 | 0.00 | 0.00 | 0.00 | 90 | 1017.4 |
| 20260904213019 | 64 | 114 | 8.0 | 18.0 | 0.00 | 0.00 | 0.00 | 90 | 1017.2 |
| 20260904211515 | 64 | 96 | 8.0 | 16.0 | 0.00 | 0.00 | 0.00 | 89 | 1017.2 |
| 20260904210020 | 65 | 91 | 9.0 | 17.0 | 0.00 | 0.00 | 0.00 | 89 | 1017.0 |
| 20260904204514 | 65 | 106 | 10.0 | 16.0 | 0.00 | 0.00 | 0.00 | 88 | 1017.2 |
| 20260904203017 | 66 | 107 | 11.0 | 21.0 | 0.00 | 0.00 | 0.00 | 85 | 1017.1 |
| 20260904201512 | 69 | 132 | 18.0 | 33.0 | 0.00 | 0.00 | 0.00 | 80 | 1017.1 |
| 20260904200035 | 70 | 133 | 12.0 | 20.0 | 0.00 | 0.00 | 0.00 | 75 | 1016.4 |
| 20260904194511 | 70 | 122 | 11.0 | 23.0 | 0.00 | 0.00 | 0.00 | 74 | 1016.2 |
| 20260904193012 | 70 | 119 | 12.0 | 22.0 | 0.00 | 0.00 | 0.00 | 73 | 1015.9 |
| 20260904191517 | 70 | 83 | 11.0 | 18.0 | 0.00 | 0.00 | 0.00 | 74 | 1015.8 |
| 20260904190011 | 70 | 134 | 11.0 | 18.0 | 0.00 | 0.00 | 0.00 | 73 | 1015.5 |
| 20260904184510 | 71 | 171 | 9.0 | 15.0 | 0.00 | 0.00 | 0.00 | 72 | 1015.4 |
| 20260904183009 | 72 | 115 | 11.0 | 19.0 | 0.00 | 0.00 | 0.00 | 70 | 1015.1 |
| 20260904181509 | 72 | 123 | 8.0 | 18.0 | 0.00 | 0.00 | 0.00 | 69 | 1015.1 |
| 20260904180007 | 73 | 112 | 9.0 | 18.0 | 0.00 | 0.00 | 0.00 | 68 | 1015.1 |
| 20260904174510 | 74 | 124 | 11.0 | 19.0 | 0.00 | 0.00 | 0.00 | 67 | 1015.0 |
| 20260904173011 | 75 | 131 | 9.0 | 14.0 | 0.00 | 0.00 | 0.00 | 66 | 1014.9 |
| 20260904171503 | 76 | 165 | 11.0 | 20.0 | 0.00 | 0.00 | 0.00 | 65 | 1015.0 |
| 20260904170003 | 77 | 117 | 10.0 | 18.0 | 0.00 | 0.00 | 0.00 | 64 | 1014.9 |
| 20260904164504 | 78 | 128 | 11.0 | 20.0 | 0.00 | 0.00 | 0.00 | 62 | 1014.9 |
| 20260904163003 | 79 | 98 | 12.0 | 18.0 | 0.00 | 0.00 | 0.00 | 60 | 1014.6 |
| 20260904161504 | 79 | 119 | 14.0 | 22.0 | 0.00 | 0.00 | 0.00 | 58 | 1014.4 |
| 20260904160001 | 79 | 104 | 12.0 | 24.0 | 0.00 | 0.00 | 0.00 | 58 | 1014.4 |
| 20260904154500 | 79 | 136 | 16.0 | 26.0 | 0.00 | 0.00 | 0.00 | 58 | 1014.5 |
| 20260904153128 | 79 | 122 | 13.0 | 23.0 | 0.00 | 0.00 | 0.00 | 58 | 1014.8 |
| 20260904151606 | 80 | 91 | 16.0 | 23.0 | 0.00 | 0.00 | 0.00 | 58 | 1014.7 |
| 20260904150058 | 80 | 97 | 13.0 | 28.0 | 0.00 | 0.00 | 0.00 | 59 | 1014.7 |
| 20260904144558 | 80 | 118 | 16.0 | 28.0 | 0.00 | 0.00 | 0.00 | 58 | 1014.7 |
| 20260904143101 | 79 | 97 | 16.0 | 28.0 | 0.00 | 0.00 | 0.00 | 59 | 1014.6 |
| 20260904141556 | 80 | 131 | 13.0 | 27.0 | 0.00 | 0.00 | 0.00 | 58 | 1014.6 |
| 20260904140055 | 79 | 83 | 13.0 | 22.0 | 0.00 | 0.00 | 0.00 | 61 | 1014.6 |
| 20260904134557 | 79 | 86 | 11.0 | 27.0 | 0.00 | 0.00 | 0.00 | 60 | 1014.7 |
| 20260904133056 | 79 | 90 | 13.0 | 30.0 | 0.00 | 0.00 | 0.00 | 59 | 1014.6 |
| 20260904131552 | 80 | 86 | 17.0 | 28.0 | 0.00 | 0.00 | 0.00 | 58 | 1014.7 |
| 20260904130051 | 79 | 67 | 19.0 | 29.0 | 0.00 | 0.00 | 0.00 | 58 | 1014.9 |
| 20260904124549 | 79 | 101 | 14.0 | 25.0 | 0.00 | 0.00 | 0.00 | 60 | 1015.0 |
| 20260904123047 | 79 | 118 | 14.0 | 25.0 | 0.00 | 0.00 | 0.00 | 60 | 1015.3 |
| 20260904121547 | 79 | 142 | 13.0 | 25.0 | 0.00 | 0.00 | 0.00 | 59 | 1015.3 |
| 20260904120058 | 79 | 92 | 16.0 | 29.0 | 0.00 | 0.00 | 0.00 | 59 | 1015.3 |
| 20260904114543 | 79 | 81 | 15.0 | 28.0 | 0.00 | 0.00 | 0.00 | 60 | 1015.2 |
| 20260904113044 | 78 | 100 | 14.0 | 25.0 | 0.00 | 0.00 | 0.00 | 60 | 1015.5 |
| 20260904111539 | 78 | 110 | 19.0 | 28.0 | 0.00 | 0.00 | 0.00 | 60 | 1015.4 |
| 20260904110038 | 78 | 94 | 16.0 | 25.0 | 0.00 | 0.00 | 0.00 | 60 | 1015.5 |
| 20260904104535 | 77 | 104 | 14.0 | 27.0 | 0.00 | 0.00 | 0.00 | 62 | 1015.7 |
| 20260904103032 | 77 | 97 | 15.0 | 28.0 | 0.00 | 0.00 | 0.00 | 63 | 1015.7 |
| 20260904101528 | 76 | 81 | 15.0 | 32.0 | 0.00 | 0.00 | 0.00 | 64 | 1015.8 |
| 20260904100028 | 75 | 84 | 12.0 | 29.0 | 0.00 | 0.00 | 0.00 | 67 | 1016.0 |
| 20260904094521 | 75 | 104 | 19.0 | 30.0 | 0.00 | 0.00 | 0.00 | 66 | 1016.1 |